Terminal Aerodrome Forecast
Issued by NWS

Home | Current Version | Previous Version | Text Only | Print | Product List | Glossary On
Versions: 1 2 3 4 5 6 7 8 9 10 11 12 13 14 15 16 17 18 19 20 21 22 23 24 25 26 27
000
FTUS42 KGSP 080853 AAA
TAFAND
TAF AMD
KAND 080853Z 0809/0906 24004KT 5SM BR SCT002
      TEMPO 0809/0812 2SM BR BKN002
     FM081400 29006KT P6SM BKN040
     FM081800 29010G18KT P6SM SCT090 BKN130
     FM090400 30006KT P6SM SCT150=

USA.gov is the U.S. government's official web portal to all federal, state and local government web resources and services.